Boulder, CO (80303)

7:01 AM MDT on October 21, 2014 (GMT -0600)
seneca | Change Station
CLOSE
Current Station
Personal Weather Station
Location: Boulder, CO
Elevation: 5335 ft
Nearby Weather Stations

Elev 5335 ft 40.00 °N, 105.22 °W | Updated 7 minutes ago

Clear
Clear
44.4 °F
Feels Like 44 °F
N
2.0
Wind Variable Wind from SSE
Gusts 2.0 mph

Today
High -- | Low -- °F
--% Chance of Precip.
Yesterday
High -- | Low -- °F
Precip. -- in
7:17 AM 6:12 PM
Waning Crescent, 6% visible
Pressure 30.02 in
Visibility 10.0 miles
Clouds Clear
Windchill 44 °F
Dew Point 38 °F
Humidity 77%
Rainfall 0.00 in
Snow Depth 0 in
UV 0 out of 12
Pollen 3.00 out of 12
Ozone Good
PM2.5 Good
Flu Activity Sporadic
METAR KBDU 211256Z AUTO 16003KT 10SM CLR 08/03 A3002 RMK AO2

More Conditions Fewer Conditions

Pressure 30.02 in
Visibility 10.0 miles
Clouds Clear
Windchill 44 °F
Dew Point 38 °F
Humidity 77%
Rainfall 0.00 in
Snow Depth 0 in
UV 0 out of 12
Pollen 3.00 out of 12
Ozone Good
PM2.5 Good
Flu Activity Sporadic
METAR KBDU 211256Z AUTO 16003KT 10SM CLR 08/03 A3002 RMK AO2

More Conditions Fewer Conditions

10-Day Weather Forecast

Almanac

Astronomy

Oct. 21, 2014 Rise Set
Actual Time 7:17 AM MDT 6:12 PM MDT
Civil Twilight 6:50 AM MDT 6:40 PM MDT
Nautical Twilight 6:18 AM MDT 7:11 PM MDT
Astronomical Twilight 5:47 AM MDT 7:42 PM MDT
Moon 5:04 AM MDT 5:07 PM MDT
Length of Visible Light 11h 49m
Length of Day
10h 54m
Tomorrow will be 2m 29s shorter.
Waning Crescent, 6% of the Moon is Illuminated
Today
Waning Crescent
Oct 23
New
Oct 30
First Quarter
Nov 6
Full
Nov 14
Last Quarter

Today's Extremes

State Highs State Lows

Community

WunderPhotos

Upload Photos

1,763,656 photos uploaded!

Nearby

Air Quality

  Air Quality AQ Index Pollutant
Yesterday Good
OZONE
Yesterday Good
PM10
Current Good
OZONE
Current Good
PM2.5
Tuesday Good
OZONE
Tuesday Good
PM2.5

Snow Depth

Station Depth Elevation
Niwot 0 in 9910 ft
University Camp 1 in 10300 ft
Lake Eldora 0 in 9700 ft
Copeland Lake 1 in 8600 ft
Wild Basin 0 in 9560 ft

Earthquake Activity

City Distance Mag. Time & Date
No recent earthquake activity has been reported nearby.
Minimum magnitude displayed is 2.5.

Coastal Water Temperatures

Place Temperature
No Stations Reporting

Nearby Weather Stations